Terminal Aerodrome Forecast
Issued by NWS

Home | Current Version | Previous Version | Text Only | Print | Product List | Glossary On
Versions: 1 2 3 4 5 6 7 8 9 10 11 12 13 14 15 16 17 18 19 20 21 22 23 24 25 26 27 28 29
780
FTUS46 KLOX 280910 AAA
TAFOXR
TAF AMD
KOXR 280910Z 2809/2906 VRB03KT P6SM SKC
     FM281200 VRB03KT 5SM BR BKN005
     FM281500 VRB04KT 5SM BR BKN006
     FM282100 27012KT P6SM FEW010
     FM290400 VRB03KT P6SM SKC=

USA.gov is the U.S. government's official web portal to all federal, state and local government web resources and services.